Time;durP1;ratioP1;P1;durP2;ratioP2;P2;SDS_P1;SDS_P2;PMS_P1;PMS_P2;Temp;Humidity;BMP_temperature;BMP_pressure;BME280_temperature;BME280_humidity;BME280_pressure;Samples;Min_cycle;Max_cycle;Signal;HPM_P1;HPM_P2
2022/06/04 00:01:53;;;;;;;12.30;9.95;;;16.80;99.90;;;;;;4905838;28;20287;-74
2022/06/04 00:04:41;;;;;;;16.65;9.80;;;16.70;99.90;;;;;;4923479;29;20651;-72
2022/06/04 00:07:30;;;;;;;11.98;9.25;;;16.70;99.90;;;;;;4918475;29;20747;-72
2022/06/04 00:16:36;;;;;;;10.13;9.10;;;16.70;99.90;;;;;;4922890;29;20958;-72
2022/06/04 00:19:25;;;;;;;11.48;9.30;;;16.80;99.90;;;;;;4909045;29;20301;-72
2022/06/04 00:22:17;;;;;;;10.13;8.80;;;16.70;99.90;;;;;;4916459;29;20245;-72
2022/06/04 00:25:11;;;;;;;10.55;8.30;;;16.70;99.90;;;;;;4919657;29;20222;-72
2022/06/04 00:28:00;;;;;;;10.75;8.82;;;16.60;99.90;;;;;;4914810;29;20323;-72
2022/06/04 00:30:49;;;;;;;10.82;9.02;;;16.80;99.90;;;;;;4925904;29;20229;-72
2022/06/04 00:33:40;;;;;;;10.75;9.43;;;16.80;99.90;;;;;;4906970;29;20213;-73
2022/06/04 00:36:28;;;;;;;12.52;9.48;;;16.80;99.90;;;;;;4910926;29;20264;-73
2022/06/04 00:39:20;;;;;;;9.40;8.50;;;16.70;99.90;;;;;;4919406;28;20221;-73
2022/06/04 00:42:12;;;;;;;10.07;8.02;;;16.60;99.90;;;;;;4893644;29;20620;-71
2022/06/04 00:45:59;;;;;;;9.57;8.30;;;16.40;99.90;;;;;;4919916;29;20753;-72
2022/06/04 00:48:52;;;;;;;11.70;8.23;;;16.30;99.90;;;;;;4924620;28;20217;-71
2022/06/04 00:51:44;;;;;;;10.25;8.52;;;16.30;99.90;;;;;;4918060;29;21549;-71
2022/06/04 00:54:33;;;;;;;9.00;8.10;;;16.30;99.90;;;;;;4918600;29;20240;-71
2022/06/04 00:57:58;;;;;;;9.45;8.45;;;16.10;99.90;;;;;;4917241;29;20584;-73
2022/06/04 01:00:54;;;;;;;10.77;8.40;;;16.30;99.90;;;;;;4933738;28;20973;-72
2022/06/04 01:03:51;;;;;;;9.73;8.73;;;16.30;99.90;;;;;;4936797;28;20239;-71
2022/06/04 01:06:50;;;;;;;12.07;9.38;;;16.30;99.90;;;;;;4920994;28;20236;-73
2022/06/04 01:09:51;;;;;;;11.07;9.30;;;16.10;99.90;;;;;;4936032;28;20235;-73
2022/06/04 01:12:57;;;;;;;11.00;9.90;;;16.20;99.90;;;;;;4931783;28;20746;-72
2022/06/04 01:15:53;;;;;;;11.45;9.68;;;16.10;99.90;;;;;;4931216;28;20252;-73
2022/06/04 01:18:53;;;;;;;12.20;9.63;;;16.10;99.90;;;;;;4904187;28;20240;-73
2022/06/04 01:21:56;;;;;;;10.70;9.05;;;16.00;99.90;;;;;;4918962;29;20748;-72
2022/06/04 01:24:59;;;;;;;9.70;8.63;;;16.10;99.90;;;;;;4918245;29;20314;-70
2022/06/04 01:27:54;;;;;;;9.20;8.30;;;16.30;99.90;;;;;;4928002;29;20220;-70
2022/06/04 01:30:45;;;;;;;11.82;9.35;;;16.00;99.90;;;;;;4925105;28;20221;-74
2022/06/04 01:33:38;;;;;;;9.60;8.63;;;16.10;99.90;;;;;;4936281;28;20217;-72
2022/06/04 01:36:32;;;;;;;11.73;9.07;;;16.00;99.90;;;;;;4936232;28;20916;-71
2022/06/04 01:39:24;;;;;;;9.20;8.30;;;16.00;99.90;;;;;;4935839;29;20626;-72
2022/06/04 01:42:11;;;;;;;10.80;8.15;;;16.00;99.90;;;;;;4937703;28;20220;-72
2022/06/04 01:45:05;;;;;;;10.82;8.68;;;16.00;99.90;;;;;;4922283;28;20235;-73
2022/06/04 01:47:56;;;;;;;8.88;8.00;;;15.90;99.90;;;;;;4901632;29;20893;-72
2022/06/04 01:50:48;;;;;;;11.15;9.15;;;16.00;99.90;;;;;;4919718;29;20236;-73
2022/06/04 01:53:39;;;;;;;9.18;8.27;;;16.00;99.90;;;;;;4924438;28;20225;-73
2022/06/04 01:56:32;;;;;;;11.13;8.13;;;15.90;99.90;;;;;;4929909;28;20228;-72
2022/06/04 01:59:25;;;;;;;9.20;8.30;;;15.80;99.90;;;;;;4931422;28;20976;-73
2022/06/04 02:02:19;;;;;;;9.23;7.72;;;15.90;99.90;;;;;;4934831;28;20231;-73
2022/06/04 02:05:16;;;;;;;12.10;8.30;;;16.00;99.90;;;;;;4945426;28;22646;-71
2022/06/04 02:08:08;;;;;;;9.70;8.00;;;15.90;99.90;;;;;;4927822;28;20900;-72
2022/06/04 02:11:02;;;;;;;9.13;7.90;;;15.80;99.90;;;;;;4939539;28;20279;-72
2022/06/04 02:13:54;;;;;;;9.15;8.25;;;15.80;99.90;;;;;;4937058;28;21853;-74
2022/06/04 02:16:47;;;;;;;8.60;7.70;;;15.80;99.90;;;;;;4911888;29;20225;-73
2022/06/04 02:19:37;;;;;;;10.65;7.70;;;15.70;99.90;;;;;;4923375;28;20224;-72
2022/06/04 02:22:26;;;;;;;9.63;7.70;;;15.70;99.90;;;;;;4922429;28;20256;-71
2022/06/04 02:25:15;;;;;;;8.38;7.32;;;15.70;99.90;;;;;;4938908;28;20228;-72
2022/06/04 02:28:10;;;;;;;7.70;6.90;;;15.70;99.90;;;;;;4936844;28;20228;-73
2022/06/04 02:31:07;;;;;;;7.57;6.78;;;15.60;99.90;;;;;;4941393;29;20220;-72
2022/06/04 02:34:02;;;;;;;8.10;7.30;;;15.60;99.90;;;;;;4941262;28;20224;-72
2022/06/04 02:37:00;;;;;;;9.23;7.70;;;15.60;99.90;;;;;;4937559;28;20769;-72
2022/06/04 02:40:01;;;;;;;9.50;7.07;;;15.60;99.90;;;;;;4918189;29;20251;-73
2022/06/04 02:42:56;;;;;;;8.23;7.15;;;15.60;99.90;;;;;;4900980;29;20229;-72
2022/06/04 02:45:51;;;;;;;7.47;6.78;;;15.70;99.90;;;;;;4918946;29;20252;-72
2022/06/04 02:48:42;;;;;;;9.68;6.93;;;15.70;99.90;;;;;;4920687;29;20232;-72
2022/06/04 02:51:35;;;;;;;7.88;7.10;;;15.70;99.90;;;;;;4919849;29;20247;-70
2022/06/04 02:54:30;;;;;;;8.63;7.03;;;15.70;99.90;;;;;;4922197;29;20285;-72
2022/06/04 02:57:19;;;;;;;9.55;6.68;;;15.70;99.90;;;;;;4920093;29;20229;-72
2022/06/04 03:00:12;;;;;;;12.40;7.20;;;15.70;99.90;;;;;;4916466;29;20237;-72
2022/06/04 03:03:01;;;;;;;10.10;7.05;;;15.80;99.90;;;;;;4921243;29;20221;-72
2022/06/04 03:05:55;;;;;;;8.48;6.68;;;15.80;99.90;;;;;;4920240;29;20796;-71
2022/06/04 03:08:44;;;;;;;8.20;7.03;;;15.70;99.90;;;;;;4914933;29;20825;-73
2022/06/04 03:11:44;;;;;;;7.85;7.05;;;15.70;99.90;;;;;;4913358;29;20604;-71
2022/06/04 03:14:32;;;;;;;8.45;7.65;;;15.80;99.90;;;;;;4916448;29;20264;-71
2022/06/04 03:17:21;;;;;;;8.18;7.30;;;15.80;99.90;;;;;;4908500;28;21309;-71
2022/06/04 03:20:11;;;;;;;8.20;7.40;;;15.80;99.90;;;;;;4907592;29;20216;-71
2022/06/04 03:23:00;;;;;;;8.00;6.78;;;15.80;99.90;;;;;;4919952;29;20233;-71
2022/06/04 03:25:48;;;;;;;7.65;7.00;;;15.90;99.90;;;;;;4920925;29;20225;-72
2022/06/04 03:28:39;;;;;;;8.50;7.20;;;15.90;99.90;;;;;;4917029;29;20221;-72
2022/06/04 03:31:28;;;;;;;9.13;6.63;;;16.00;99.90;;;;;;4917232;29;20228;-72
2022/06/04 03:34:17;;;;;;;7.55;6.55;;;16.10;99.90;;;;;;4918424;29;20252;-71
2022/06/04 03:37:05;;;;;;;7.75;6.95;;;16.00;99.90;;;;;;4916416;29;20220;-71
2022/06/04 03:39:54;;;;;;;7.95;6.55;;;16.00;99.90;;;;;;4918630;29;20784;-73
2022/06/04 03:42:43;;;;;;;7.32;6.70;;;15.90;99.90;;;;;;4908495;29;20311;-72
2022/06/04 03:45:32;;;;;;;7.30;6.18;;;15.90;99.90;;;;;;4918744;29;20229;-72
2022/06/04 03:48:25;;;;;;;9.43;6.68;;;16.00;99.90;;;;;;4923193;29;20452;-72
2022/06/04 03:51:13;;;;;;;7.00;6.30;;;15.90;99.90;;;;;;4926061;29;20224;-72
2022/06/04 03:54:02;;;;;;;7.82;6.50;;;16.10;99.90;;;;;;4921138;29;20225;-71
2022/06/04 03:57:37;;;;;;;7.78;6.32;;;16.10;99.90;;;;;;4921017;29;20232;-72
2022/06/04 03:59:59;;;;;;;7.45;5.90;;;16.00;99.90;;;;;;4918748;29;20231;-73
2022/06/04 04:02:51;;;;;;;7.03;5.78;;;16.00;99.90;;;;;;4893254;29;20221;-71
2022/06/04 04:05:45;;;;;;;6.75;6.10;;;16.10;99.90;;;;;;4912356;29;20234;-71
2022/06/04 04:08:37;;;;;;;6.90;6.25;;;16.30;99.90;;;;;;4906829;29;20576;-72
2022/06/04 04:11:27;;;;;;;10.55;6.43;;;16.50;99.90;;;;;;4926146;29;20676;-72
2022/06/04 04:14:15;;;;;;;10.02;6.65;;;16.60;99.90;;;;;;4917950;29;20328;-72
2022/06/04 04:17:04;;;;;;;7.10;6.40;;;16.80;99.90;;;;;;4913574;29;20225;-70
2022/06/04 04:19:55;;;;;;;7.28;5.80;;;16.90;99.90;;;;;;4923038;29;20343;-71
2022/06/04 04:22:44;;;;;;;7.18;6.35;;;17.10;99.90;;;;;;4922876;29;20243;-71
2022/06/04 04:25:33;;;;;;;8.60;6.13;;;17.20;99.90;;;;;;4932565;29;20824;-71
2022/06/04 04:28:22;;;;;;;8.60;6.47;;;17.20;99.90;;;;;;4924758;29;20593;-71
2022/06/04 04:31:15;;;;;;;6.68;5.65;;;16.90;99.90;;;;;;4922558;29;20228;-71
2022/06/04 04:34:04;;;;;;;6.57;5.97;;;17.10;99.90;;;;;;4925114;29;20237;-71
2022/06/04 04:36:57;;;;;;;8.90;6.07;;;17.30;99.90;;;;;;4925739;29;20329;-70
2022/06/04 04:39:46;;;;;;;10.80;6.45;;;17.20;99.90;;;;;;4930308;28;20771;-70
2022/06/04 04:42:35;;;;;;;6.75;6.00;;;17.20;99.90;;;;;;4926355;29;20237;-71
2022/06/04 04:45:25;;;;;;;7.47;6.03;;;17.30;99.90;;;;;;4923575;29;20232;-72
2022/06/04 04:48:15;;;;;;;6.53;5.93;;;17.40;99.90;;;;;;4937834;28;20223;-72
2022/06/04 04:51:05;;;;;;;12.60;6.40;;;17.40;99.90;;;;;;4940906;28;20228;-72
2022/06/04 04:53:55;;;;;;;9.05;5.80;;;17.60;99.90;;;;;;4935594;28;20307;-71
2022/06/04 04:56:44;;;;;;;6.93;5.47;;;17.50;99.90;;;;;;4939695;28;20312;-71
2022/06/04 04:59:33;;;;;;;6.22;5.65;;;17.40;99.90;;;;;;4938944;28;20239;-72
2022/06/04 05:02:25;;;;;;;6.65;5.97;;;17.50;99.90;;;;;;4937211;28;20231;-72
2022/06/04 05:05:15;;;;;;;8.82;6.32;;;17.50;99.90;;;;;;4939545;28;20742;-72
2022/06/04 05:08:04;;;;;;;7.65;5.70;;;17.60;99.90;;;;;;4928980;28;20243;-72
2022/06/04 05:10:54;;;;;;;6.80;6.18;;;17.70;99.90;;;;;;4942968;28;20216;-73
2022/06/04 05:13:42;;;;;;;6.00;5.47;;;17.80;99.90;;;;;;4943345;28;20236;-73
2022/06/04 05:16:33;;;;;;;7.38;6.10;;;17.90;99.90;;;;;;4938229;28;20243;-70
2022/06/04 05:19:21;;;;;;;6.45;5.57;;;18.00;99.90;;;;;;4939011;28;20224;-72
2022/06/04 05:22:10;;;;;;;6.25;5.65;;;18.00;99.90;;;;;;4944133;28;20304;-71
2022/06/04 05:24:58;;;;;;;7.57;6.35;;;18.10;99.90;;;;;;4942626;28;20225;-72
2022/06/04 05:27:49;;;;;;;10.02;6.25;;;18.40;99.90;;;;;;4928680;28;20227;-71
2022/06/04 05:30:41;;;;;;;6.90;6.30;;;18.50;99.90;;;;;;4938976;28;20953;-71
2022/06/04 05:33:30;;;;;;;8.77;6.07;;;18.70;99.90;;;;;;4941001;28;20224;-71
2022/06/04 05:36:22;;;;;;;6.60;6.05;;;18.70;99.90;;;;;;4940193;28;20235;-71
2022/06/04 05:39:12;;;;;;;6.03;5.43;;;18.80;99.90;;;;;;4942054;28;20231;-71
2022/06/04 05:42:02;;;;;;;7.45;5.20;;;19.00;99.90;;;;;;4946943;28;20592;-72
2022/06/04 05:44:55;;;;;;;6.15;5.55;;;19.00;99.90;;;;;;4945422;28;20225;-70
2022/06/04 05:47:44;;;;;;;6.05;5.45;;;19.10;99.90;;;;;;4914903;29;20298;-70
2022/06/04 05:50:33;;;;;;;7.88;5.75;;;19.20;99.90;;;;;;4925038;29;20252;-71
2022/06/04 05:53:22;;;;;;;7.22;5.68;;;19.30;99.90;;;;;;4912745;29;20232;-70
2022/06/04 05:56:12;;;;;;;6.63;6.00;;;19.40;99.90;;;;;;4910766;29;20225;-71
2022/06/04 05:59:03;;;;;;;7.13;6.07;;;19.30;99.90;;;;;;4924424;29;20225;-71
2022/06/04 06:01:53;;;;;;;7.45;6.75;;;19.40;99.90;;;;;;4911018;29;20247;-71
2022/06/04 06:04:42;;;;;;;9.20;6.13;;;19.50;99.90;;;;;;4924049;29;20228;-71
2022/06/04 06:07:34;;;;;;;10.30;6.22;;;19.70;99.90;;;;;;4923675;29;20606;-71
2022/06/04 06:10:22;;;;;;;6.93;6.15;;;19.80;99.90;;;;;;4912137;29;20225;-71
2022/06/04 06:13:11;;;;;;;7.47;6.20;;;19.90;99.90;;;;;;4926549;29;20316;-73
2022/06/04 06:16:04;;;;;;;10.60;6.53;;;19.80;99.90;;;;;;4924572;29;20235;-73
2022/06/04 06:18:55;;;;;;;9.00;6.28;;;20.20;99.90;;;;;;4915177;29;20231;-73
2022/06/04 06:21:45;;;;;;;8.75;7.53;;;21.30;99.90;;;;;;4916116;29;20240;-73
2022/06/04 06:24:34;;;;;;;8.70;6.60;;;21.70;99.90;;;;;;4906058;29;20309;-72
2022/06/04 06:27:23;;;;;;;9.68;7.38;;;21.40;99.90;;;;;;4924794;29;20227;-72
2022/06/04 06:30:13;;;;;;;10.23;7.00;;;21.40;99.90;;;;;;4921061;29;20217;-73
2022/06/04 06:33:03;;;;;;;8.25;7.45;;;21.50;99.90;;;;;;4920780;29;20228;-71
2022/06/04 06:35:57;;;;;;;8.70;6.72;;;21.30;99.90;;;;;;4919217;28;20546;-70
2022/06/04 06:38:46;;;;;;;8.82;7.90;;;21.50;99.90;;;;;;4912049;29;20313;-72
2022/06/04 06:41:35;;;;;;;10.43;7.00;;;21.50;99.90;;;;;;4908959;29;20232;-71
2022/06/04 06:44:25;;;;;;;8.35;7.45;;;21.70;99.90;;;;;;4928348;29;20231;-71
2022/06/04 06:47:15;;;;;;;7.60;6.85;;;21.70;99.90;;;;;;4910168;29;20228;-72
2022/06/04 06:50:05;;;;;;;11.40;8.15;;;21.80;99.90;;;;;;4916644;29;20232;-72
2022/06/04 06:52:55;;;;;;;7.60;6.72;;;21.90;99.90;;;;;;4916042;29;20232;-72
2022/06/04 06:55:47;;;;;;;8.10;7.05;;;22.00;99.90;;;;;;4908936;29;20224;-72
2022/06/04 06:58:36;;;;;;;8.38;6.72;;;21.90;99.90;;;;;;4919884;29;20717;-73
2022/06/04 07:01:26;;;;;;;8.15;7.35;;;22.00;99.90;;;;;;4913047;29;20260;-72
2022/06/04 07:04:16;;;;;;;7.55;6.72;;;22.10;99.90;;;;;;4922220;28;20550;-73
2022/06/04 07:07:05;;;;;;;7.55;6.75;;;22.30;99.90;;;;;;4937549;28;20232;-70
2022/06/04 07:09:55;;;;;;;11.68;6.63;;;22.20;99.90;;;;;;4940005;28;20228;-73
2022/06/04 07:12:44;;;;;;;9.63;6.53;;;22.90;99.90;;;;;;4941662;28;20243;-72
2022/06/04 07:15:33;;;;;;;7.82;7.03;;;23.20;98.00;;;;;;4936881;28;20220;-71
2022/06/04 07:18:23;;;;;;;8.50;6.97;;;23.40;96.90;;;;;;4938822;28;20232;-72
2022/06/04 07:21:15;;;;;;;7.85;7.15;;;23.70;96.70;;;;;;4928269;29;20226;-72
2022/06/04 07:24:05;;;;;;;7.57;6.30;;;23.80;96.60;;;;;;4926572;28;20236;-73
2022/06/04 07:26:57;;;;;;;7.95;7.13;;;24.10;95.80;;;;;;4943993;28;20319;-73
2022/06/04 07:29:46;;;;;;;7.70;7.00;;;23.90;94.30;;;;;;4941177;28;20232;-77
2022/06/04 07:32:34;;;;;;;8.43;7.13;;;23.90;94.70;;;;;;4926200;28;20231;-72
2022/06/04 07:35:23;;;;;;;8.00;7.20;;;23.60;95.70;;;;;;4944487;28;20254;-75
2022/06/04 07:38:11;;;;;;;8.50;7.60;;;23.60;95.50;;;;;;4940782;28;20232;-71
2022/06/04 11:27:31;;;;;;;12.75;10.57;;;22.90;99.90;;;;;;5044846;27;21847;-76
2022/06/04 11:30:29;;;;;;;13.52;11.10;;;23.00;99.90;;;;;;5034681;28;20223;-71
2022/06/04 11:33:30;;;;;;;11.93;10.45;;;22.90;99.90;;;;;;5066397;28;20239;-74
2022/06/04 11:36:27;;;;;;;13.45;10.52;;;22.90;99.90;;;;;;5038018;28;20299;-73
2022/06/04 11:39:29;;;;;;;12.68;10.75;;;22.90;99.90;;;;;;5031086;28;20308;-73
2022/06/04 11:42:27;;;;;;;11.60;10.38;;;22.80;99.90;;;;;;5023115;28;20691;-72
2022/06/04 11:45:34;;;;;;;13.60;10.93;;;23.00;99.90;;;;;;5032820;28;20727;-71
2022/06/04 11:48:49;;;;;;;13.85;11.45;;;23.90;99.90;;;;;;5047950;28;20584;-70
2022/06/04 11:51:54;;;;;;;14.60;11.45;;;23.90;99.90;;;;;;5051458;28;20225;-71
2022/06/04 11:55:05;;;;;;;16.70;11.45;;;26.10;99.90;;;;;;5060821;28;20223;-73
2022/06/04 11:58:31;;;;;;;11.57;10.38;;;29.20;94.20;;;;;;5067567;28;20215;-73
2022/06/04 12:01:29;;;;;;;11.75;9.90;;;31.20;80.10;;;;;;5076981;28;20774;-72
2022/06/04 12:04:22;;;;;;;10.32;9.32;;;29.00;84.80;;;;;;5070501;28;20258;-71
2022/06/04 12:07:16;;;;;;;9.50;8.50;;;30.10;84.50;;;;;;5075818;28;20219;-69
2022/06/04 12:10:20;;;;;;;9.82;8.18;;;30.50;80.40;;;;;;5073854;28;20250;-68
2022/06/04 12:13:18;;;;;;;14.45;8.60;;;30.40;76.60;;;;;;5074272;28;20604;-69
2022/06/04 12:16:13;;;;;;;8.55;7.63;;;29.50;78.30;;;;;;5058685;28;20670;-69
2022/06/04 12:24:15;;;;;;;10.52;8.07;;;29.00;78.20;;;;;;5078017;28;20223;-68
2022/06/04 12:25:36;;;;;;;12.57;8.15;;;27.70;81.40;;;;;;5076175;28;20279;-70
2022/06/04 12:28:28;;;;;;;10.35;8.90;;;27.70;81.50;;;;;;5071609;28;20261;-72
2022/06/04 12:31:36;;;;;;;9.48;8.48;;;28.60;80.20;;;;;;5072552;28;20238;-72
2022/06/04 12:34:33;;;;;;;10.00;8.77;;;28.70;79.50;;;;;;5071608;28;20250;-71
2022/06/04 12:37:24;;;;;;;8.80;7.60;;;29.70;75.90;;;;;;5062691;28;20356;-71
2022/06/04 12:40:29;;;;;;;8.35;7.35;;;29.20;75.80;;;;;;5045870;28;20672;-71
2022/06/04 12:43:32;;;;;;;8.40;7.45;;;27.50;76.90;;;;;;5046769;28;20569;-69
2022/06/04 12:46:38;;;;;;;8.45;7.38;;;26.90;79.00;;;;;;5057965;28;20523;-71
2022/06/04 12:49:36;;;;;;;11.50;8.00;;;26.90;79.70;;;;;;5045839;28;20220;-70
2022/06/04 12:52:48;;;;;;;8.23;7.53;;;26.40;80.00;;;;;;5063063;28;20227;-70
2022/06/04 12:55:39;;;;;;;9.07;8.18;;;25.70;82.40;;;;;;5056455;28;20212;-70
2022/06/04 12:58:32;;;;;;;11.32;8.40;;;25.50;84.10;;;;;;5063456;28;20231;-70
2022/06/04 13:01:33;;;;;;;9.43;7.88;;;25.40;82.80;;;;;;5047022;28;20216;-71
2022/06/04 13:04:25;;;;;;;11.52;8.25;;;25.40;84.50;;;;;;5057478;28;20606;-69
2022/06/04 14:34:57;;;;;;;11.27;9.35;;;23.60;99.90;;;;;;5051393;27;20527;-68
2022/06/04 14:37:50;;;;;;;9.35;8.40;;;23.70;99.90;;;;;;5033895;28;20278;-68
2022/06/04 14:40:48;;;;;;;9.80;8.48;;;23.70;99.90;;;;;;5047429;28;20626;-68
2022/06/04 14:44:00;;;;;;;9.27;8.45;;;23.70;99.90;;;;;;5033584;28;20225;-69
2022/06/04 14:47:06;;;;;;;9.50;8.48;;;23.80;99.90;;;;;;5028952;28;20236;-70
2022/06/04 14:50:11;;;;;;;9.07;8.23;;;23.60;99.90;;;;;;5034082;28;20263;-69
2022/06/04 14:53:03;;;;;;;12.07;8.82;;;23.80;99.90;;;;;;5047902;28;20227;-70
2022/06/04 14:56:11;;;;;;;10.63;8.30;;;23.70;99.90;;;;;;5028636;28;20648;-69
2022/06/04 14:59:38;;;;;;;8.73;7.95;;;23.80;99.90;;;;;;5032292;28;20954;-71
2022/06/04 15:02:45;;;;;;;10.95;8.25;;;23.50;99.90;;;;;;5031633;28;20209;-70
2022/06/04 15:05:48;;;;;;;10.60;8.52;;;23.30;99.90;;;;;;5031185;28;20225;-70
2022/06/04 15:09:10;;;;;;;10.95;8.85;;;23.40;99.90;;;;;;5032393;28;20255;-70
2022/06/04 15:12:28;;;;;;;10.77;8.32;;;23.30;99.90;;;;;;5034070;28;20221;-69
2022/06/04 15:15:31;;;;;;;10.25;8.85;;;23.60;99.90;;;;;;5032126;28;20305;-70
2022/06/04 15:18:48;;;;;;;10.75;8.93;;;23.80;99.90;;;;;;5033329;28;20220;-71
2022/06/04 15:21:48;;;;;;;12.52;8.50;;;23.90;99.90;;;;;;5026043;28;20232;-69
2022/06/04 15:24:48;;;;;;;11.43;9.10;;;24.10;99.90;;;;;;5031901;28;20225;-70
2022/06/04 15:27:45;;;;;;;9.38;8.25;;;24.10;99.90;;;;;;5031517;28;20225;-71
2022/06/04 15:33:55;;;;;;;12.38;9.02;;;23.80;99.90;;;;;;5043873;28;20565;-71
2022/06/04 15:36:52;;;;;;;10.90;9.32;;;23.90;99.90;;;;;;5018798;28;20236;-70
2022/06/04 15:40:00;;;;;;;11.30;8.60;;;23.90;99.90;;;;;;5020969;28;20236;-69
2022/06/04 15:42:59;;;;;;;9.60;8.07;;;23.80;99.90;;;;;;5020419;28;20267;-71
2022/06/04 15:46:01;;;;;;;9.70;8.02;;;23.60;99.90;;;;;;5020318;28;20236;-72
2022/06/04 15:48:55;;;;;;;9.85;7.90;;;23.50;99.90;;;;;;4998059;28;20222;-74
2022/06/04 15:58:12;;;;;;;8.98;7.15;;;23.30;99.90;;;;;;5019924;28;20292;-72
2022/06/04 16:01:10;;;;;;;8.95;8.10;;;23.30;99.90;;;;;;5022924;28;20214;-75
2022/06/04 16:04:02;;;;;;;10.73;8.80;;;23.40;99.90;;;;;;5015395;28;20309;-70
2022/06/04 16:07:16;;;;;;;10.25;8.98;;;23.50;99.90;;;;;;5019130;28;20229;-71
2022/06/04 16:10:11;;;;;;;10.98;8.38;;;23.40;99.90;;;;;;5017004;28;20218;-75
2022/06/04 16:13:25;;;;;;;10.90;8.68;;;23.50;99.90;;;;;;5005286;28;20283;-72
2022/06/04 16:16:24;;;;;;;8.57;7.78;;;23.50;99.90;;;;;;5005202;28;20747;-71
2022/06/04 16:19:29;;;;;;;9.38;8.48;;;23.50;99.90;;;;;;5006970;28;20217;-70
2022/06/04 16:22:33;;;;;;;11.90;7.70;;;23.50;99.90;;;;;;4998065;28;20229;-69
2022/06/04 16:25:32;;;;;;;9.38;7.80;;;23.50;99.90;;;;;;5009275;28;20228;-73
2022/06/04 16:28:23;;;;;;;8.63;7.82;;;23.50;99.90;;;;;;5022780;28;21107;-72
2022/06/04 16:31:28;;;;;;;8.25;7.38;;;23.40;99.90;;;;;;5021066;28;20291;-72
2022/06/04 16:34:17;;;;;;;7.32;6.72;;;23.30;99.90;;;;;;5010719;28;20830;-72
2022/06/04 16:37:06;;;;;;;8.18;7.38;;;23.10;99.90;;;;;;5024065;28;20233;-72
2022/06/04 16:39:56;;;;;;;8.32;7.53;;;23.00;99.90;;;;;;5022086;28;20221;-71
2022/06/04 16:42:51;;;;;;;8.60;7.35;;;23.00;99.90;;;;;;5020151;28;20225;-72
2022/06/04 16:45:46;;;;;;;8.52;7.28;;;23.00;99.90;;;;;;5022776;28;20225;-71
2022/06/04 16:48:43;;;;;;;9.93;7.30;;;23.10;99.90;;;;;;5020042;28;21132;-71
2022/06/04 16:51:33;;;;;;;8.75;7.88;;;23.10;99.90;;;;;;5036462;28;20772;-72
2022/06/04 16:54:25;;;;;;;8.50;7.63;;;23.20;99.90;;;;;;5015478;28;20299;-72
2022/06/04 16:57:15;;;;;;;9.02;7.70;;;23.10;99.90;;;;;;5020987;28;20687;-72
2022/06/04 17:00:05;;;;;;;13.52;7.60;;;23.10;99.90;;;;;;5021082;28;20222;-71
2022/06/04 17:03:29;;;;;;;9.05;8.15;;;23.10;99.90;;;;;;5025106;28;20234;-71
2022/06/04 17:06:32;;;;;;;9.40;7.65;;;23.00;99.90;;;;;;5023552;28;20615;-72
2022/06/04 17:09:38;;;;;;;8.90;7.45;;;23.00;99.90;;;;;;5018629;28;20390;-71
2022/06/04 17:12:48;;;;;;;8.05;7.22;;;23.00;99.90;;;;;;5018468;28;20221;-72
2022/06/04 17:15:49;;;;;;;8.27;7.57;;;22.90;99.90;;;;;;5021056;28;20237;-72
2022/06/04 17:19:13;;;;;;;7.90;7.10;;;22.90;99.90;;;;;;5035724;28;20228;-72
2022/06/04 17:22:16;;;;;;;10.40;7.85;;;22.80;99.90;;;;;;5021720;28;20222;-72
2022/06/04 17:25:29;;;;;;;10.35;8.43;;;22.80;99.90;;;;;;5023637;28;20228;-72
2022/06/04 17:28:43;;;;;;;9.50;7.88;;;22.80;99.90;;;;;;5034798;28;20572;-73
2022/06/04 17:31:54;;;;;;;8.15;7.35;;;22.70;99.90;;;;;;5032528;28;20221;-73
2022/06/04 17:35:08;;;;;;;8.63;7.72;;;22.50;99.90;;;;;;5020114;28;20225;-72
2022/06/04 17:38:20;;;;;;;8.48;7.68;;;22.60;99.90;;;;;;5036947;28;20278;-72
2022/06/04 17:41:14;;;;;;;9.30;8.23;;;22.50;99.90;;;;;;5035238;28;20620;-72
2022/06/04 17:44:07;;;;;;;8.52;7.57;;;22.50;99.90;;;;;;5023633;28;20232;-72
2022/06/04 17:46:56;;;;;;;12.13;8.00;;;22.40;99.90;;;;;;5021115;28;20228;-71
2022/06/04 17:49:45;;;;;;;10.60;7.35;;;22.40;99.90;;;;;;5022063;28;20229;-70
2022/06/04 17:52:34;;;;;;;11.07;8.45;;;22.40;99.90;;;;;;5033678;28;20222;-70
2022/06/04 17:55:23;;;;;;;8.55;7.30;;;22.30;99.90;;;;;;5013841;28;20217;-71
2022/06/04 17:58:12;;;;;;;8.45;7.65;;;22.30;99.90;;;;;;5020489;28;20703;-71
2022/06/04 18:01:04;;;;;;;8.82;7.95;;;22.20;99.90;;;;;;5021966;28;20807;-70
2022/06/04 18:03:52;;;;;;;10.32;8.35;;;22.20;99.90;;;;;;5020595;28;20239;-71
2022/06/04 18:06:44;;;;;;;12.18;8.63;;;22.20;99.90;;;;;;5020458;28;20248;-72
2022/06/04 18:09:33;;;;;;;9.32;8.52;;;22.10;99.90;;;;;;5020414;28;20278;-72
2022/06/04 18:12:22;;;;;;;9.00;8.10;;;22.10;99.90;;;;;;5016565;28;20229;-72
2022/06/04 18:15:11;;;;;;;10.82;8.80;;;22.10;99.90;;;;;;5020141;28;20569;-72
2022/06/04 18:18:04;;;;;;;12.05;8.48;;;22.10;99.90;;;;;;5019186;28;20323;-72
2022/06/04 18:20:52;;;;;;;8.93;7.97;;;22.10;99.90;;;;;;5019508;28;20248;-74
2022/06/04 18:23:41;;;;;;;9.85;8.85;;;22.00;99.90;;;;;;5021047;28;20235;-72
2022/06/04 18:26:30;;;;;;;13.80;12.35;;;21.90;99.90;;;;;;5024116;28;20248;-73
2022/06/04 18:29:19;;;;;;;9.52;8.40;;;21.90;99.90;;;;;;5021314;28;20236;-71
2022/06/04 18:32:09;;;;;;;9.63;8.57;;;21.80;99.90;;;;;;5022750;28;20509;-72
2022/06/04 18:34:59;;;;;;;9.88;8.88;;;21.70;99.90;;;;;;5020858;28;20228;-73
2022/06/04 18:37:51;;;;;;;13.25;9.32;;;21.70;99.90;;;;;;5010391;28;20308;-73
2022/06/04 18:40:40;;;;;;;9.77;8.15;;;21.70;99.90;;;;;;5021297;28;20323;-72
2022/06/04 18:56:00;;;;;;;9.20;8.35;;;21.60;99.90;;;;;;5013559;28;20240;-72
2022/06/04 18:58:51;;;;;;;12.15;8.77;;;21.50;99.90;;;;;;5007600;28;20217;-72
2022/06/04 19:01:46;;;;;;;12.98;9.70;;;21.50;99.90;;;;;;5020997;28;20767;-71
2022/06/04 19:04:35;;;;;;;10.25;9.20;;;21.40;99.90;;;;;;5003100;28;20229;-72
2022/06/04 19:14:00;;;;;;;11.32;9.52;;;21.30;99.90;;;;;;5026913;28;20247;-74
2022/06/04 19:16:48;;;;;;;12.45;10.80;;;21.30;99.90;;;;;;5013330;28;20226;-72
2022/06/04 19:24:36;;;;;;;15.68;14.13;;;21.30;99.90;;;;;;5025588;28;20228;-73
2022/06/04 19:26:01;;;;;;;11.85;9.77;;;21.20;99.90;;;;;;5007963;28;20224;-72
2022/06/04 19:28:50;;;;;;;14.52;9.80;;;21.20;99.90;;;;;;5035017;28;20221;-72
2022/06/04 19:31:39;;;;;;;12.48;9.70;;;21.10;99.90;;;;;;5022494;28;20230;-72
2022/06/04 19:34:27;;;;;;;12.40;10.05;;;21.10;99.90;;;;;;5021036;28;20233;-72
2022/06/04 19:37:18;;;;;;;15.75;10.65;;;21.10;99.90;;;;;;5008009;28;20236;-72
2022/06/04 19:40:08;;;;;;;16.67;10.90;;;21.10;99.90;;;;;;5024931;28;20222;-72
2022/06/04 19:42:58;;;;;;;18.40;10.57;;;21.00;99.90;;;;;;5021832;28;20225;-72
2022/06/04 19:45:59;;;;;;;18.48;11.82;;;21.10;99.90;;;;;;5019792;28;20221;-72
2022/06/04 19:48:48;;;;;;;14.10;10.95;;;21.00;99.90;;;;;;5022671;28;20228;-73
2022/06/04 19:51:37;;;;;;;12.38;11.18;;;21.00;99.90;;;;;;5022833;28;20291;-73
2022/06/04 19:57:34;;;;;;;10.88;9.77;;;21.00;99.90;;;;;;5040061;28;20244;-71
2022/06/04 20:00:26;;;;;;;13.40;10.27;;;21.10;99.90;;;;;;5024541;28;20213;-73
2022/06/04 20:03:15;;;;;;;13.73;9.43;;;21.00;99.90;;;;;;5022004;28;20244;-73
2022/06/04 20:06:04;;;;;;;12.95;9.07;;;21.10;99.90;;;;;;5021811;28;20282;-73
2022/06/04 20:08:53;;;;;;;9.55;8.48;;;21.00;99.90;;;;;;5024314;28;20251;-72
2022/06/04 20:11:48;;;;;;;11.15;8.68;;;21.00;99.90;;;;;;5023349;28;20301;-72
2022/06/04 20:14:37;;;;;;;13.23;8.18;;;21.00;99.90;;;;;;5023170;28;20226;-73
2022/06/04 20:17:32;;;;;;;11.27;7.18;;;21.00;99.90;;;;;;5011630;28;20325;-72
2022/06/04 20:20:22;;;;;;;7.40;6.60;;;20.90;99.90;;;;;;5019206;28;20221;-72
2022/06/04 20:23:12;;;;;;;7.90;7.00;;;20.90;99.90;;;;;;5025617;28;20223;-71
2022/06/04 20:26:04;;;;;;;8.27;6.15;;;20.90;99.90;;;;;;5025140;28;20237;-71
2022/06/04 20:28:55;;;;;;;9.77;6.90;;;20.80;99.90;;;;;;5023199;28;20575;-72
2022/06/04 20:31:43;;;;;;;8.05;6.80;;;20.80;99.90;;;;;;5018856;28;20565;-72
2022/06/04 20:34:34;;;;;;;7.30;6.22;;;20.80;99.90;;;;;;5035927;28;20324;-71
2022/06/04 20:37:23;;;;;;;11.40;6.70;;;20.70;99.90;;;;;;5021742;28;20222;-72
2022/06/04 20:40:13;;;;;;;8.63;6.50;;;20.70;99.90;;;;;;5022029;28;20237;-72
2022/06/04 20:43:03;;;;;;;7.45;6.55;;;20.60;99.90;;;;;;5033609;28;20228;-72
2022/06/04 20:45:52;;;;;;;9.65;6.72;;;20.60;99.90;;;;;;5031250;28;20233;-72
2022/06/04 20:48:41;;;;;;;7.88;6.78;;;20.50;99.90;;;;;;5023065;28;20232;-71
2022/06/04 20:51:33;;;;;;;8.57;6.40;;;20.50;99.90;;;;;;5021981;28;20253;-69
2022/06/04 20:54:21;;;;;;;7.60;6.53;;;20.40;99.90;;;;;;5019496;28;20252;-73
2022/06/04 20:57:12;;;;;;;9.88;6.68;;;20.40;99.90;;;;;;5022816;28;20225;-72
2022/06/04 21:00:04;;;;;;;8.52;6.35;;;20.30;99.90;;;;;;5021903;28;20236;-72
2022/06/04 21:02:53;;;;;;;7.28;5.95;;;20.30;99.90;;;;;;5018431;28;20221;-73